Data for 02/21/2006

Time Sea-Level Adjusted Pressure Absolute Pressure Temperature Relative Humidity Dew Point   
(mb) (inHg) (mb) (inHg) (C) (F) (%) (C) (F)
00:05 1014 29.94 843 24.89 -4.5 24 66 -10 14.1
00:10 1014 29.94 843 24.89 -4.6 23.8 66 -10 14
00:15 1014 29.94 843 24.89 -4.6 23.7 66 -10 13.9
00:20 1014 29.94 843 24.89 -4.6 23.7 66 -10 14
00:25 1014 29.94 843 24.89 -4.7 23.6 65 -10.4 13.3
00:30 1014 29.94 843 24.89 -4.5 23.8 64 -10.4 13.2
00:35 1014 29.94 843 24.89 -4.5 24 62 -10.7 12.8
00:40 1014 29.94 843 24.89 -4.5 23.8 62 -10.8 12.6
00:45 1014 29.94 843 24.89 -4.5 23.9 61 -11 12.2
00:50 1014 29.94 843 24.89 -4.7 23.6 63 -10.7 12.7
00:55 1014 29.94 843 24.89 -4.7 23.5 64 -10.4 13.2
01:00 1014 29.94 843 24.89 -4.7 23.6 66 -10.1 13.8
01:05 1014 29.94 843 24.89 -4.8 23.3 67 -9.9 14.1
01:10 1014 29.94 843 24.89 -4.9 23.2 72 -9.2 15.5
01:15 1014 29.94 843 24.89 -5.1 22.9 75 -8.8 16.2
01:20 1014 29.94 843 24.89 -5.1 22.7 77 -8.6 16.5
01:25 1014 29.94 843 24.89 -5.2 22.6 77 -8.7 16.4
01:30 1014 29.94 843 24.89 -5.2 22.7 77 -8.6 16.5
01:35 1014 29.94 843 24.89 -5.2 22.6 78 -8.4 16.8
01:40 1014 29.94 843 24.89 -5.3 22.4 80 -8.2 17.2
01:45 1014 29.94 843 24.89 -5.4 22.3 82 -8 17.7
01:50 1014 29.94 844 24.92 -5.5 22.1 84 -7.8 18
01:55 1014 29.94 844 24.92 -5.6 22 86 -7.5 18.4
02:00 1014 29.94 844 24.92 -5.7 21.8 87 -7.5 18.5
02:05 1014 29.94 844 24.92 -5.7 21.7 87 -7.5 18.4
02:10 1014 29.94 844 24.92 -5.7 21.8 86 -7.7 18.2
02:15 1014 29.94 844 24.92 -5.7 21.7 85 -7.9 17.8
02:20 1014 29.94 844 24.92 -5.8 21.6 84 -8 17.6
02:25 1014 29.94 844 24.92 -5.8 21.6 83 -8.2 17.2
02:30 1014 29.94 844 24.92 -5.8 21.5 83 -8.3 17.1
02:35 1014 29.94 844 24.92 -5.8 21.5 83 -8.3 17
02:40 1014 29.94 844 24.92 -5.9 21.4 83 -8.3 17
02:45 1014 29.94 844 24.92 -5.9 21.4 83 -8.3 17
02:50 1014 29.94 844 24.92 -5.9 21.4 82 -8.5 16.7
02:55 1014 29.94 844 24.92 -5.8 21.5 81 -8.5 16.6
03:00 1014 29.94 844 24.92 -5.8 21.6 81 -8.6 16.6
03:05 1014 29.94 843 24.89 -5.8 21.6 81 -8.6 16.6
03:10 1014 29.94 843 24.89 -5.8 21.6 81 -8.6 16.6
03:15 1014 29.94 843 24.89 -5.8 21.5 81 -8.7 16.4
03:20 1014 29.94 843 24.89 -5.8 21.5 80 -8.8 16.2
03:25 1014 29.94 843 24.89 -5.8 21.5 80 -8.8 16.2
03:30 1014 29.94 843 24.89 -5.8 21.6 80 -8.8 16.2
03:35 1014 29.94 843 24.89 -5.8 21.5 79 -8.9 16
03:40 1014 29.94 843 24.89 -5.8 21.5 79 -8.9 16
03:45 1014 29.94 843 24.89 -5.8 21.5 79 -9 15.9
03:50 1014 29.94 843 24.89 -5.8 21.5 79 -8.9 15.9
03:55 1014 29.94 843 24.89 -5.8 21.5 79 -8.9 16
04:00 1014 29.94 843 24.89 -5.8 21.5 79 -8.9 16
04:05 1014 29.94 843 24.89 -5.9 21.3 80 -8.8 16.1
04:10 1014 29.94 843 24.89 -6 21.3 81 -8.8 16.2
04:15 1014 29.94 843 24.89 -6 21.2 81 -8.7 16.3
04:20 1014 29.94 843 24.89 -6 21.2 81 -8.8 16.2
04:25 1014 29.94 843 24.89 -5.9 21.4 81 -8.7 16.3
04:30 1014 29.94 843 24.89 -5.9 21.4 80 -8.8 16.2
04:35 1014 29.94 843 24.89 -5.9 21.4 80 -8.8 16.2
04:40 1014 29.94 843 24.89 -5.8 21.5 80 -8.7 16.4
04:45 1014 29.94 843 24.89 -5.8 21.5 80 -8.8 16.2
04:50 1014 29.94 843 24.89 -5.9 21.4 80 -8.8 16.1
04:55 1014 29.94 843 24.89 -5.9 21.3 80 -8.8 16.2
05:00 1014 29.94 843 24.89 -5.9 21.3 80 -8.9 16
05:05 1014 29.94 843 24.89 -6 21.3 81 -8.8 16.2
05:10 1014 29.94 843 24.89 -6.1 21 84 -8.4 16.9
05:15 1014 29.94 843 24.89 -6.6 20.1 87 -8.5 16.7
05:20 1014 29.94 843 24.89 -6.6 20 87 -8.5 16.6
05:25 1014 29.94 843 24.89 -6.5 20.4 85 -8.6 16.6
05:30 1014 29.94 843 24.89 -6.3 20.7 85 -8.4 16.9
05:35 1014 29.94 843 24.89 -6.4 20.4 86 -8.5 16.7
05:40 1014 29.94 843 24.89 -6.5 20.3 86 -8.4 16.8
05:45 1014 29.94 843 24.89 -6.6 20.2 87 -8.4 17
05:50 1014 29.94 843 24.89 -6.6 20.1 87 -8.4 16.9
05:55 1014 29.94 843 24.89 -6.6 20 87 -8.4 16.8
06:00 1013 29.91 843 24.89 -6.7 19.9 87 -8.5 16.7
06:05 1013 29.91 843 24.89 -6.5 20.2 86 -8.5 16.7
06:10 1013 29.91 843 24.89 -6.3 20.6 85 -8.5 16.8
06:15 1013 29.91 843 24.89 -6.2 20.8 84 -8.5 16.7
06:20 1013 29.91 842 24.86 -6.1 20.9 83 -8.6 16.6
06:25 1013 29.91 842 24.86 -6.2 20.8 83 -8.6 16.5
06:30 1013 29.91 842 24.86 -6.2 20.8 82 -8.8 16.2
06:35 1013 29.91 842 24.86 -6.2 20.9 79 -9.3 15.2
06:40 1013 29.91 842 24.86 -6.1 21 79 -9.1 15.6
06:45 1013 29.91 842 24.86 -6 21.2 78 -9.2 15.4
06:50 1013 29.91 842 24.86 -5.9 21.3 79 -8.9 15.9
06:55 1013 29.91 842 24.86 -5.9 21.4 78 -9.1 15.6
07:00 1013 29.91 842 24.86 -5.9 21.4 78 -9.2 15.5
07:05 1013 29.91 842 24.86 -5.9 21.4 76 -9.5 14.8
07:10 1013 29.91 842 24.86 -5.7 21.7 70 -10.4 13.3
07:15 1013 29.91 842 24.86 -5.6 22 67 -10.8 12.6
07:20 1013 29.91 842 24.86 -5.5 22.2 71 -9.9 14.3
07:25 1013 29.91 842 24.86 -5.5 22.1 72 -9.8 14.3
07:30 1013 29.91 842 24.86 -5.6 21.9 70 -10.3 13.4
07:35 1013 29.91 842 24.86 -5.6 21.8 70 -10.3 13.4
07:40 1013 29.91 842 24.86 -5.7 21.8 71 -10.1 13.8
07:45 1013 29.91 842 24.86 -5.6 21.9 70 -10.3 13.4
07:50 1013 29.91 842 24.86 -5.6 22 70 -10.2 13.7
07:55 1013 29.91 842 24.86 -5.5 22.1 71 -10 14
08:00 1013 29.91 842 24.86 -5.5 22.1 71 -9.9 14.1
08:05 1013 29.91 842 24.86 -5.5 22.2 70 -10 13.9
08:10 1013 29.91 842 24.86 -5.4 22.2 69 -10.2 13.6
08:15 1013 29.91 842 24.86 -5.4 22.4 69 -10.2 13.6
08:20 1013 29.91 842 24.86 -5.3 22.5 69 -10.2 13.7
08:25 1013 29.91 842 24.86 -5.2 22.6 67 -10.3 13.4
08:30 1013 29.91 842 24.86 -5.2 22.7 65 -10.7 12.7
08:35 1013 29.91 842 24.86 -5.3 22.4 66 -10.8 12.6
08:40 1013 29.91 842 24.86 -5.3 22.4 64 -11.2 11.9
08:45 1013 29.91 842 24.86 -5.1 22.8 60 -11.7 10.9
08:50 1013 29.91 842 24.86 -4.9 23.2 61 -11.3 11.6
08:55 1013 29.91 842 24.86 -4.9 23.3 60 -11.5 11.4
09:00 1013 29.91 842 24.86 -4.9 23.3 62 -11 12.1
09:05 1013 29.91 842 24.86 -4.8 23.3 59 -11.7 11
09:10 1013 29.91 842 24.86 -4.6 23.7 58 -11.7 11
09:15 1013 29.91 842 24.86 -4.6 23.8 57 -11.9 10.6
09:20 1013 29.91 842 24.86 -4.5 23.9 57 -11.8 10.8
09:25 1013 29.91 842 24.86 -4.4 24 58 -11.6 11.1
09:30 1013 29.91 842 24.86 -4.4 24.1 58 -11.5 11.3
09:35 1013 29.91 842 24.86 -4.4 24.1 58 -11.6 11.2
09:40 1013 29.91 843 24.89 -4.6 23.7 62 -10.8 12.6
09:45 1013 29.91 843 24.89 -4.6 23.7 64 -10.4 13.4
09:50 1013 29.91 843 24.89 -4.6 23.6 65 -10.2 13.6
09:55 1013 29.91 843 24.89 -4.6 23.8 65 -10.2 13.6
10:00 1013 29.91 843 24.89 -4.5 23.9 64 -10.3 13.4
10:05 1013 29.91 842 24.86 -4.4 24 66 -9.8 14.4
10:10 1013 29.91 842 24.86 -4.7 23.6 71 -9.2 15.4
10:15 1013 29.91 842 24.86 -4.8 23.4 70 -9.4 15.1
10:20 1013 29.91 842 24.86 -4.6 23.6 70 -9.3 15.2
10:25 1013 29.91 842 24.86 -4.7 23.5 70 -9.4 15.1
10:30 1013 29.91 842 24.86 -4.8 23.4 71 -9.3 15.2
10:35 1013 29.91 842 24.86 -4.6 23.7 69 -9.4 15.1
10:40 1013 29.91 842 24.86 -4.4 24 69 -9.3 15.3
10:45 1013 29.91 842 24.86 -4.4 24.1 70 -9 15.8
10:50 1013 29.91 842 24.86 -4.2 24.4 69 -9.1 15.6
10:55 1013 29.91 842 24.86 -4 24.8 67 -9.2 15.4
11:00 1013 29.91 842 24.86 -3.8 25.1 66 -9.3 15.2
11:05 1013 29.91 842 24.86 -3.8 25.1 65 -9.4 15
11:10 1013 29.91 842 24.86 -3.8 25.1 66 -9.3 15.2
11:15 1013 29.91 842 24.86 -3.7 25.3 65 -9.4 15.2
11:20 1013 29.91 842 24.86 -3.7 25.4 66 -9.1 15.7
11:25 1013 29.91 842 24.86 -3.7 25.4 67 -8.9 16
11:30 1013 29.91 842 24.86 -3.5 25.8 65 -9.2 15.4
11:35 1013 29.91 842 24.86 -3.3 26 64 -9.2 15.5
11:40 1013 29.91 842 24.86 -3.2 26.3 63 -9.2 15.4
11:45 1013 29.91 842 24.86 -2.8 27 61 -9.3 15.2
11:50 1013 29.91 842 24.86 -2.8 27 60 -9.4 15.1
11:55 1013 29.91 842 24.86 -2.6 27.3 58 -9.8 14.4
12:00 1013 29.91 842 24.86 -2.8 26.9 59 -9.8 14.4
12:05 1013 29.91 842 24.86 -2.6 27.4 57 -10 14.1
12:10 1013 29.91 842 24.86 -2.3 27.9 55 -10.2 13.6
12:15 1013 29.91 842 24.86 -2.1 28.3 54 -10.2 13.7
12:20 1013 29.91 842 24.86 -2.2 28 55 -10.1 13.9
12:25 1013 29.91 842 24.86 -1.8 28.8 50 -11 12.2
12:30 1013 29.91 842 24.86 -1.7 28.9 47 -11.6 11.2
12:35 1012 29.88 842 24.86 -1.8 28.8 48 -11.4 11.4
12:40 1012 29.88 842 24.86 -1.5 29.3 47 -11.5 11.2
12:45 1012 29.88 842 24.86 -1.5 29.4 45 -11.9 10.6
12:50 1012 29.88 841 24.83 -1.3 29.6 46 -11.6 11.2
12:55 1012 29.88 841 24.83 -1.1 30 45 -11.5 11.4
13:00 1012 29.88 841 24.83 -1.1 30 44 -12 10.5
13:05 1012 29.88 841 24.83 -1.3 29.7 46 -11.6 11.1
13:10 1012 29.88 841 24.83 -1.3 29.6 46 -11.6 11.1
13:15 1012 29.88 841 24.83 -1.4 29.4 45 -11.8 10.8
13:20 1012 29.88 841 24.83 -1.3 29.7 47 -11.1 12
13:25 1012 29.88 841 24.83 -1.5 29.3 46 -11.7 10.9
13:30 1012 29.88 841 24.83 -1.5 29.2 46 -11.7 10.9
13:35 1012 29.88 841 24.83 -1.2 29.8 47 -11.3 11.7
13:40 1012 29.88 841 24.83 -1.1 30 48 -10.9 12.4
13:45 1011 29.85 841 24.83 -1.3 29.7 46 -11.6 11.1
13:50 1011 29.85 841 24.83 -1.3 29.6 47 -11.2 11.8
13:55 1011 29.85 840 24.81 -1.1 30 47 -11.2 11.8
14:00 1011 29.85 840 24.81 -1 30.1 46 -11.3 11.7
14:05 1011 29.85 840 24.81 -1 30.2 45 -11.4 11.5
14:10 1011 29.85 840 24.81 -0.5 31 44 -11.3 11.7
14:15 1011 29.85 840 24.81 -0.4 31.3 45 -11 12.1
14:20 1011 29.85 840 24.81 -0.2 31.7 43 -11.4 11.4
14:25 1011 29.85 840 24.81 -0.5 31.2 43 -11.6 11.2
14:30 1011 29.85 840 24.81 -0.6 31 43 -11.7 11
14:35 1011 29.85 840 24.81 -0.5 31.1 45 -11.1 12
14:40 1011 29.85 840 24.81 -0.3 31.5 44 -11.2 11.8
14:45 1011 29.85 840 24.81 -0.3 31.5 43 -11.5 11.3
14:50 1011 29.85 840 24.81 -0.5 31.1 45 -11.1 11.9
14:55 1011 29.85 840 24.81 -0.5 31 44 -11.5 11.4
15:00 1011 29.85 840 24.81 -0.7 30.7 45 -11.3 11.6
15:05 1011 29.85 840 24.81 -0.7 30.7 43 -11.7 10.9
15:10 1011 29.85 840 24.81 -0.7 30.8 45 -11.1 12.1
15:15 1011 29.85 840 24.81 -0.7 30.8 44 -11.6 11.2
15:20 1011 29.85 840 24.81 -0.6 30.9 45 -11.2 11.8
15:25 1011 29.85 840 24.81 -0.8 30.6 45 -11.3 11.6
15:30 1011 29.85 840 24.81 -0.7 30.7 43 -11.7 10.9
15:35 1010 29.83 840 24.81 -0.7 30.7 44 -11.5 11.3
15:40 1010 29.83 840 24.81 -0.8 30.6 44 -11.6 11.1
15:45 1010 29.83 840 24.81 -0.8 30.6 45 -11.2 11.8
15:50 1010 29.83 840 24.81 -0.8 30.6 46 -11.2 11.9
15:55 1010 29.83 840 24.81 -0.7 30.7 46 -11 12.2
16:00 1010 29.83 840 24.81 -0.8 30.6 46 -11 12.2
16:05 1010 29.83 839 24.78 -0.9 30.5 45 -11.3 11.7
16:10 1010 29.83 839 24.78 -0.9 30.4 46 -11.2 11.9
16:15 1010 29.83 839 24.78 -0.9 30.3 48 -10.6 13
16:20 1010 29.83 839 24.78 -0.9 30.5 48 -10.5 13.2
16:25 1010 29.83 839 24.78 -0.9 30.3 49 -10.4 13.2
16:30 1010 29.83 839 24.78 -0.9 30.3 48 -10.5 13.1
16:35 1010 29.83 839 24.78 -0.9 30.4 49 -10.3 13.5
16:40 1010 29.83 840 24.81 -0.9 30.3 50 -10.1 13.8
16:45 1010 29.83 839 24.78 -0.9 30.4 49 -10.3 13.4
16:50 1010 29.83 839 24.78 -0.8 30.5 50 -9.9 14.2
16:55 1010 29.83 839 24.78 -0.9 30.4 50 -10.1 13.8
17:00 1010 29.83 839 24.78 -0.9 30.3 51 -9.8 14.4
17:05 1010 29.83 839 24.78 -1 30.3 49 -10.3 13.5
17:10 1010 29.83 839 24.78 -1 30.2 50 -10 13.9
17:15 1010 29.83 839 24.78 -1 30.2 50 -10.1 13.9
17:20 1010 29.83 839 24.78 -1.1 30.1 52 -9.6 14.7
17:25 1010 29.83 839 24.78 -1 30.1 52 -9.8 14.4
17:30 1010 29.83 839 24.78 -1.1 29.9 53 -9.5 14.9
17:35 1010 29.83 839 24.78 -1.3 29.6 54 -9.4 15
17:40 1010 29.83 839 24.78 -1.5 29.3 55 -9.3 15.2
17:45 1010 29.83 839 24.78 -1.6 29.1 55 -9.5 14.9
17:50 1010 29.83 839 24.78 -1.6 29.1 56 -9.3 15.2
17:55 1010 29.83 839 24.78 -1.7 28.9 54 -9.8 14.4
18:00 1010 29.83 839 24.78 -1.7 28.9 55 -9.7 14.5
18:05 1010 29.83 839 24.78 -1.7 28.9 55 -9.6 14.7
18:10 1010 29.83 839 24.78 -1.8 28.7 57 -9.4 15.1
18:15 1010 29.83 839 24.78 -2 28.4 57 -9.4 15
18:20 1010 29.83 839 24.78 -2 28.4 57 -9.5 15
18:25 1010 29.83 839 24.78 -2 28.4 57 -9.4 15.1
18:30 1010 29.83 839 24.78 -2 28.4 57 -9.5 15
18:35 1010 29.83 839 24.78 -2 28.5 58 -9.2 15.4
18:40 1010 29.83 839 24.78 -1.9 28.5 59 -9 15.8
18:45 1010 29.83 839 24.78 -2 28.5 59 -8.9 15.9
18:50 1010 29.83 839 24.78 -1.9 28.5 58 -9.2 15.4
18:55 1010 29.83 839 24.78 -1.8 28.8 57 -9.3 15.3
19:00 1010 29.83 839 24.78 -1.8 28.7 58 -9 15.8
19:05 1010 29.83 839 24.78 -2 28.5 59 -8.8 16.1
19:10 1010 29.83 839 24.78 -2 28.5 58 -9.1 15.6
19:15 1010 29.83 839 24.78 -1.9 28.6 58 -9.1 15.7
19:20 1010 29.83 839 24.78 -2 28.4 59 -8.9 15.9
19:25 1010 29.83 839 24.78 -1.9 28.5 58 -9.2 15.5
19:30 1010 29.83 839 24.78 -1.9 28.6 57 -9.3 15.2
19:35 1010 29.83 839 24.78 -1.9 28.6 56 -9.5 14.9
19:40 1010 29.83 839 24.78 -1.8 28.8 56 -9.5 14.9
19:45 1010 29.83 839 24.78 -1.7 28.9 55 -9.6 14.8
19:50 1010 29.83 839 24.78 -1.8 28.8 56 -9.5 14.9
19:55 1010 29.83 839 24.78 -1.7 28.9 54 -9.8 14.4
20:00 1010 29.83 839 24.78 -1.6 29.2 54 -9.7 14.6
20:05 1010 29.83 839 24.78 -1.6 29.1 55 -9.5 14.9
20:10 1010 29.83 839 24.78 -1.5 29.3 54 -9.6 14.6
20:15 1010 29.83 839 24.78 -1.6 29.1 55 -9.5 15
20:20 1010 29.83 839 24.78 -1.7 29 54 -9.7 14.6
20:25 1010 29.83 839 24.78 -1.7 28.9 55 -9.6 14.7
20:30 1010 29.83 839 24.78 -1.8 28.8 55 -9.6 14.8
20:35 1010 29.83 839 24.78 -1.8 28.8 53 -10.1 13.9
20:40 1010 29.83 840 24.81 -1.7 28.9 55 -9.7 14.6
20:45 1010 29.83 840 24.81 -1.8 28.7 54 -10 13.9
20:50 1011 29.85 840 24.81 -1.6 29.1 50 -10.6 12.9
20:55 1011 29.85 840 24.81 -1.5 29.3 51 -10.4 13.3
21:00 1011 29.85 840 24.81 -1.5 29.4 50 -10.6 12.9
21:05 1011 29.85 840 24.81 -1.3 29.6 50 -10.5 13.1
21:10 1011 29.85 840 24.81 -1.3 29.6 50 -10.6 13
21:15 1011 29.85 840 24.81 -1.4 29.5 50 -10.5 13.1
21:20 1011 29.85 840 24.81 -1.5 29.4 52 -10.2 13.6
21:25 1011 29.85 840 24.81 -1.6 29.1 50 -10.8 12.6
21:30 1011 29.85 840 24.81 -1.5 29.2 53 -10 14
21:35 1011 29.85 840 24.81 -1.7 29 52 -10.2 13.7
21:40 1011 29.85 840 24.81 -1.8 28.8 52 -10.3 13.5
21:45 1010 29.83 840 24.81 -1.8 28.7 52 -10.5 13
21:50 1011 29.85 840 24.81 -1.8 28.7 51 -10.6 12.9
21:55 1011 29.85 840 24.81 -1.8 28.8 51 -10.8 12.6
22:00 1011 29.85 840 24.81 -1.7 28.9 49 -11 12.3
22:05 1011 29.85 840 24.81 -1.7 28.9 50 -10.8 12.5
22:10 1011 29.85 840 24.81 -1.8 28.7 51 -10.8 12.6
22:15 1011 29.85 840 24.81 -1.9 28.6 51 -10.7 12.7
22:20 1011 29.85 840 24.81 -2 28.4 52 -10.6 12.9
22:25 1011 29.85 840 24.81 -2.1 28.3 54 -10.3 13.5
22:30 1011 29.85 840 24.81 -2.2 28.1 53 -10.5 13.1
22:35 1011 29.85 840 24.81 -2 28.3 49 -11.5 11.3
22:40 1011 29.85 840 24.81 -1.6 29.2 47 -11.3 11.6
22:45 1011 29.85 840 24.81 -1.6 29.1 49 -11 12.3
22:50 1011 29.85 840 24.81 -1.8 28.8 51 -10.7 12.7
22:55 1011 29.85 840 24.81 -2 28.4 54 -10.2 13.6
23:00 1011 29.85 840 24.81 -2.1 28.1 54 -10.2 13.6
23:05 1011 29.85 840 24.81 -2.2 28 54 -10.2 13.6
23:10 1011 29.85 840 24.81 -2.1 28.1 55 -10.1 13.9
23:15 1011 29.85 840 24.81 -2.2 28.1 55 -10 14
23:20 1011 29.85 840 24.81 -2.1 28.1 55 -10 13.9
23:25 1011 29.85 840 24.81 -2.1 28.2 55 -10 14
23:30 1011 29.85 840 24.81 -2.1 28.2 54 -10.1 13.8
23:35 1011 29.85 840 24.81 -2 28.3 54 -10.1 13.9
23:40 1011 29.85 840 24.81 -2 28.4 55 -10 14
23:45 1011 29.85 840 24.81 -2 28.3 55 -10 14.1
23:50 1011 29.85 840 24.81 -2 28.3 55 -10 14.1
23:55 1011 29.85 840 24.81 -2.1 28.2 56 -9.7 14.6
24:00 1011 29.85 840 24.81 -2.2 28.1 55 -10.1 13.9